createdAt,value
2023-04-15T00:00:16.613Z,101547.63
2023-04-15T00:03:41.074Z,101548.50
2023-04-15T00:07:03.911Z,101549.38
2023-04-15T00:10:26.571Z,101548.56
2023-04-15T00:13:49.935Z,101551.16
2023-04-15T00:17:12.976Z,101547.75
2023-04-15T00:20:38.107Z,101551.19
2023-04-15T00:24:00.872Z,101553.88
2023-04-15T00:27:23.549Z,101550.50
2023-04-15T00:30:47.834Z,101555.66
2023-04-15T00:34:12.100Z,101552.28
2023-04-15T00:37:37.319Z,101552.31
2023-04-15T00:41:01.500Z,101567.00
2023-04-15T00:44:24.149Z,101561.84
2023-04-15T00:47:48.791Z,101562.69
2023-04-15T00:51:12.942Z,101566.16
2023-04-15T00:54:38.156Z,101561.00
2023-04-15T00:58:02.257Z,101561.91
2023-04-15T01:01:27.377Z,101567.06
2023-04-15T01:04:50.988Z,101563.63
2023-04-15T01:08:15.417Z,101563.63
2023-04-15T01:11:41.146Z,101561.00
2023-04-15T01:15:04.989Z,101554.13
2023-04-15T01:18:28.913Z,101545.50
2023-04-15T01:21:52.378Z,101561.91
2023-04-15T01:25:21.184Z,101560.16
2023-04-15T01:28:48.542Z,101550.66
2023-04-15T01:32:11.802Z,101557.63
2023-04-15T01:35:34.663Z,101559.38
2023-04-15T01:38:59.229Z,101556.78
2023-04-15T01:42:24.268Z,101554.22
2023-04-15T01:45:49.182Z,101553.38
2023-04-15T01:49:12.140Z,101550.72
2023-04-15T01:52:35.098Z,101572.38
2023-04-15T01:55:58.012Z,101564.59
2023-04-15T01:59:21.427Z,101562.03
2023-04-15T02:02:45.530Z,101561.19
2023-04-15T02:06:08.375Z,101552.56
2023-04-15T02:09:32.254Z,101566.41
2023-04-15T02:12:55.523Z,101566.44
2023-04-15T02:16:23.018Z,101572.53
2023-04-15T02:19:47.177Z,101572.53
2023-04-15T07:09:46.883Z,101646.50
2023-04-15T07:13:10.334Z,101653.16
2023-04-15T07:16:32.559Z,101652.22
2023-04-15T08:24:04.047Z,101677.81
2023-04-15T08:27:26.244Z,101678.59
2023-04-15T08:36:15.282Z,101681.84
2023-04-15T08:39:39.376Z,101680.16
2023-04-15T08:52:56.753Z,101676.78
2023-04-15T09:01:14.111Z,101676.78
2023-04-15T09:09:30.664Z,101678.59
2023-04-15T09:12:52.905Z,101677.00
2023-04-15T09:16:16.382Z,101677.84
2023-04-15T09:29:51.873Z,101689.88
2023-04-15T09:33:56.249Z,101689.88
2023-04-15T09:56:43.183Z,101661.88
2023-04-15T10:00:06.680Z,101657.41
2023-04-15T10:04:29.816Z,101679.63
2023-04-15T10:07:52.201Z,101682.38
2023-04-15T10:31:32.763Z,101672.47
2023-04-15T10:50:01.696Z,101641.78
2023-04-15T10:58:17.565Z,101651.25
2023-04-15T11:02:29.492Z,101641.50
2023-04-15T11:15:49.254Z,101620.69
2023-04-15T11:19:40.575Z,101628.94
2023-04-15T11:27:58.878Z,101646.84
2023-04-15T11:40:57.410Z,101639.00
2023-04-15T11:44:19.876Z,101609.75
2023-04-15T12:12:08.391Z,101633.38
2023-04-15T12:15:30.519Z,101629.66
2023-04-15T12:18:55.313Z,101624.34
2023-04-15T12:27:55.145Z,101615.06
2023-04-15T12:46:28.658Z,101608.09
2023-04-15T12:59:31.714Z,101588.91
2023-04-15T13:13:39.051Z,101607.56
2023-04-15T13:27:04.638Z,101609.44
2023-04-15T14:09:48.513Z,101600.97
2023-04-15T14:13:11.997Z,101584.50
2023-04-15T14:16:34.514Z,101589.56
2023-04-15T14:19:56.500Z,101598.28
2023-04-15T14:23:18.183Z,101591.47
2023-04-15T14:26:40.001Z,101605.72
2023-04-15T14:30:03.347Z,101579.09
2023-04-15T14:33:25.249Z,101607.47
2023-04-15T14:36:47.121Z,101596.25
2023-04-15T14:40:10.628Z,101606.34
2023-04-15T14:43:36.576Z,101602.13
2023-04-15T14:47:02.438Z,101608.31
2023-04-15T14:50:24.333Z,101605.78
2023-04-15T14:53:46.743Z,101604.91
2023-04-15T14:57:10.136Z,101605.81
2023-04-15T15:00:32.185Z,101581.91
2023-04-15T15:03:55.864Z,101604.22
2023-04-15T15:07:17.700Z,101608.75
2023-04-15T15:10:49.057Z,101612.22
2023-04-15T15:14:12.142Z,101612.28
2023-04-15T15:17:34.497Z,101612.28
2023-04-15T15:20:58.130Z,101609.69
2023-04-15T15:24:20.397Z,101601.03
2023-04-15T15:27:42.682Z,101609.69
2023-04-15T15:31:05.496Z,101599.31
2023-04-15T15:34:27.242Z,101593.66
2023-04-15T15:37:50.513Z,101576.75
2023-04-15T15:41:13.407Z,101616.34
2023-04-15T15:44:36.486Z,101602.47
2023-04-15T15:47:59.428Z,101586.34
2023-04-15T15:51:22.360Z,101589.97
2023-04-15T15:54:45.952Z,101608.09
2023-04-15T15:58:07.939Z,101611.59
2023-04-15T16:01:30.113Z,101609.91
2023-04-15T16:04:52.745Z,101616.94
2023-04-15T16:08:14.716Z,101616.22
2023-04-15T16:11:41.513Z,101600.16
2023-04-15T16:15:04.399Z,101623.66
2023-04-15T16:18:26.471Z,101610.63
2023-04-15T16:21:48.315Z,101608.25
2023-04-15T16:25:10.860Z,101618.72
2023-04-15T16:28:34.570Z,101623.97
2023-04-15T16:31:57.235Z,101620.81
2023-04-15T16:35:19.420Z,101621.91
2023-04-15T16:38:41.221Z,101635.06
2023-04-15T16:42:03.629Z,101619.75
2023-04-15T16:45:27.109Z,101609.47
2023-04-15T16:48:49.198Z,101618.72
2023-04-15T16:52:11.280Z,101635.66
2023-04-15T16:55:33.136Z,101633.88
2023-04-15T16:58:55.163Z,101640.00
2023-04-15T17:02:18.630Z,101607.50
2023-04-15T17:05:42.491Z,101644.22
2023-04-15T17:09:04.940Z,101652.22
2023-04-15T17:12:27.300Z,101640.69
2023-04-15T17:15:49.521Z,101635.94
2023-04-15T17:19:13.301Z,101643.84
2023-04-15T17:22:35.954Z,101657.16
2023-04-15T17:25:57.957Z,101648.81
2023-04-15T17:29:20.674Z,101660.22
2023-04-15T17:32:42.758Z,101665.72
2023-04-15T17:36:07.203Z,101669.50
2023-04-15T17:39:29.667Z,101668.03
2023-04-15T17:42:51.257Z,101673.50
2023-04-15T17:46:13.615Z,101671.13
2023-04-15T17:49:37.865Z,101671.41
2023-04-15T17:53:02.328Z,101675.00
2023-04-15T17:56:24.297Z,101677.84
2023-04-15T17:59:47.891Z,101674.69
2023-04-15T18:03:10.604Z,101677.44
2023-04-15T18:06:32.770Z,101688.06
2023-04-15T18:09:56.610Z,101687.44
2023-04-15T18:13:19.038Z,101690.19
2023-04-15T18:16:42.918Z,101689.44
2023-04-15T18:20:05.380Z,101656.25
2023-04-15T18:23:28.897Z,101694.19
2023-04-15T18:26:53.507Z,101691.75
2023-04-15T18:30:15.432Z,101699.69
2023-04-15T18:33:37.661Z,101704.22
2023-04-15T18:36:59.927Z,101694.75
2023-04-15T18:40:21.746Z,101699.25
2023-04-15T18:43:44.957Z,101707.16
2023-04-15T18:47:07.294Z,101705.50
2023-04-15T18:50:29.140Z,101702.22
2023-04-15T18:53:50.951Z,101705.75
2023-04-15T18:57:13.457Z,101708.47
2023-04-15T19:00:41.958Z,101675.84
2023-04-15T19:04:03.967Z,101705.16
2023-04-15T19:07:26.759Z,101707.88
2023-04-15T19:10:49.151Z,101715.72
2023-04-15T19:14:11.641Z,101715.81
2023-04-15T19:17:34.779Z,101715.06
2023-04-15T19:20:57.905Z,101715.97
2023-04-15T19:24:20.923Z,101712.63
2023-04-15T19:27:43.011Z,101714.38
2023-04-15T19:31:06.383Z,101704.06
2023-04-15T19:34:29.588Z,101719.66
2023-04-15T19:37:51.626Z,101714.56
2023-04-15T19:41:13.253Z,101714.63
2023-04-15T19:44:35.028Z,101721.59
2023-04-15T19:47:57.299Z,101725.13
2023-04-15T19:51:20.938Z,101722.59
2023-04-15T19:54:42.686Z,101720.94
2023-04-15T19:58:04.756Z,101718.41
2023-04-15T20:01:27.319Z,101717.59
2023-04-15T20:04:49.678Z,101709.00
2023-04-15T20:08:13.154Z,101709.91
2023-04-15T20:12:46.851Z,101716.00
2023-04-15T20:15:17.459Z,101704.84
2023-04-15T20:18:39.662Z,101720.38
2023-04-15T20:22:01.983Z,101716.09
2023-04-15T20:25:25.709Z,101712.66
2023-04-15T20:28:47.497Z,101719.56
2023-04-15T20:32:11.681Z,101686.88
2023-04-15T20:35:33.728Z,101710.09
2023-04-15T20:38:55.818Z,101718.75
2023-04-15T20:42:19.922Z,101723.13
2023-04-15T20:45:41.727Z,101713.63
2023-04-15T20:49:03.762Z,101717.09
2023-04-15T20:52:26.056Z,101716.25
2023-04-15T20:55:48.265Z,101709.38
2023-04-15T20:59:11.957Z,101709.41
2023-04-15T21:02:33.984Z,101705.13
2023-04-15T21:05:55.699Z,101706.88
2023-04-15T21:09:17.530Z,101712.94
2023-04-15T21:12:40.991Z,101706.91
2023-04-15T21:16:04.406Z,101699.16
2023-04-15T21:19:26.474Z,101698.34
2023-04-15T21:22:48.152Z,101703.53
2023-04-15T21:26:10.023Z,101704.44
2023-04-15T21:29:31.875Z,101694.97
2023-04-15T21:32:55.911Z,101712.22
2023-04-15T21:36:17.676Z,101703.63
2023-04-15T21:39:39.623Z,101701.94
2023-04-15T21:43:01.525Z,101687.31
2023-04-15T21:46:25.305Z,101713.19
2023-04-15T21:49:50.362Z,101706.28
2023-04-15T21:53:12.331Z,101712.31
2023-04-15T21:56:34.508Z,101706.31
2023-04-15T21:59:56.562Z,101709.75
2023-04-15T22:03:18.257Z,101711.50
2023-04-15T22:06:41.918Z,101704.63
2023-04-15T22:10:03.882Z,101699.44
2023-04-15T22:13:26.048Z,101721.00
2023-04-15T22:16:48.089Z,101719.31
2023-04-15T22:20:10.860Z,101719.28
2023-04-15T22:23:34.056Z,101721.00
2023-04-15T22:26:55.994Z,101720.16
2023-04-15T22:30:18.050Z,101713.25
2023-04-15T22:33:39.992Z,101708.09
2023-04-15T22:37:01.791Z,101711.53
2023-04-15T22:40:25.050Z,101715.00
2023-04-15T22:43:47.574Z,101710.69
2023-04-15T22:47:09.666Z,101714.09
2023-04-15T22:50:31.463Z,101720.16
2023-04-15T22:53:53.097Z,101724.47
2023-04-15T22:57:16.257Z,101727.88
2023-04-15T23:00:38.804Z,101721.00
2023-04-15T23:04:09.534Z,101720.97
2023-04-15T23:07:42.902Z,101716.69
2023-04-15T23:11:04.774Z,101715.81
2023-04-15T23:14:28.278Z,101717.50
2023-04-15T23:17:51.222Z,101715.78
2023-04-15T23:21:12.875Z,101717.50
2023-04-15T23:24:34.685Z,101707.16
2023-04-15T23:27:56.804Z,101724.38
2023-04-15T23:31:20.229Z,101714.88
2023-04-15T23:34:42.334Z,101718.31
2023-04-15T23:38:04.254Z,101718.31
2023-04-15T23:41:25.982Z,101715.69
2023-04-15T23:44:47.936Z,101721.72
2023-04-15T23:48:11.136Z,101722.56
2023-04-15T23:51:33.084Z,101722.53
2023-04-15T23:54:55.005Z,101719.94
2023-04-15T23:58:16.786Z,101722.53
